Time;durP1;ratioP1;P1;durP2;ratioP2;P2;SDS_P1;SDS_P2;PMS_P1;PMS_P2;Temp;Humidity;BMP_temperature;BMP_pressure;BME280_temperature;BME280_humidity;BME280_pressure;Samples;Min_cycle;Max_cycle;Signal;HPM_P1;HPM_P2
2023/08/11 00:01:30;;;;;;;7.67;5.90;;;17.80;99.90;;;;;;6200642;23;20458;-78
2023/08/11 00:04:07;;;;;;;5.67;5.20;;;17.60;99.90;;;;;;6191696;23;20443;-76
2023/08/11 00:10:05;;;;;;;6.07;5.50;;;17.40;99.90;;;;;;6179825;23;20885;-76
2023/08/11 00:12:42;;;;;;;5.57;4.90;;;17.40;99.90;;;;;;6186852;23;20423;-77
2023/08/11 00:15:21;;;;;;;5.40;4.90;;;17.40;99.90;;;;;;6185964;23;20446;-77
2023/08/11 00:18:06;;;;;;;8.43;5.80;;;17.40;99.90;;;;;;6185866;23;20445;-78
2023/08/11 00:20:50;;;;;;;5.27;4.93;;;17.40;99.90;;;;;;6185981;23;20442;-76
2023/08/11 00:23:39;;;;;;;5.23;4.73;;;17.30;99.90;;;;;;6185784;23;20446;-76
2023/08/11 00:26:40;;;;;;;4.93;4.63;;;17.30;99.90;;;;;;6185619;23;20431;-76
2023/08/11 00:29:49;;;;;;;5.47;4.97;;;17.30;99.90;;;;;;6185492;23;20510;-76
2023/08/11 00:32:37;;;;;;;5.63;5.13;;;17.30;99.90;;;;;;6185803;23;20415;-77
2023/08/11 00:38:41;;;;;;;5.10;4.70;;;17.10;99.90;;;;;;6131757;23;20427;-76
2023/08/11 00:41:15;;;;;;;6.50;5.90;;;17.10;99.90;;;;;;6183270;23;20441;-76
2023/08/11 00:43:49;;;;;;;5.60;5.20;;;16.90;99.90;;;;;;6186102;23;20454;-76
2023/08/11 00:46:30;;;;;;;6.07;5.57;;;16.80;99.90;;;;;;6186980;23;20423;-77
2023/08/11 00:49:11;;;;;;;6.27;5.67;;;17.10;99.90;;;;;;6185799;23;20497;-77
2023/08/11 00:51:45;;;;;;;5.37;4.97;;;17.00;99.90;;;;;;6183259;23;20439;-76
2023/08/11 00:54:19;;;;;;;6.03;5.47;;;17.00;99.90;;;;;;6185071;23;20388;-76
2023/08/11 00:56:57;;;;;;;6.07;5.57;;;17.00;99.90;;;;;;6185024;23;20431;-76
2023/08/11 00:59:35;;;;;;;6.23;5.60;;;17.00;99.90;;;;;;6185063;23;20469;-76
2023/08/11 01:02:18;;;;;;;6.30;5.60;;;16.90;99.90;;;;;;6184443;23;20411;-76
2023/08/11 01:04:52;;;;;;;6.00;5.50;;;16.90;99.90;;;;;;6184185;23;20987;-77
2023/08/11 01:08:06;;;;;;;7.00;6.30;;;16.70;99.90;;;;;;6184497;23;20435;-76
2023/08/11 01:14:02;;;;;;;;;;;;;;;;;;;;;
2023/08/11 01:16:34;;;;;;;8.03;6.33;;;16.50;99.90;;;;;;6086218;23;20498;-77
2023/08/11 01:19:25;;;;;;;8.70;6.20;;;16.50;99.90;;;;;;6186970;23;20862;-77
2023/08/11 01:21:58;;;;;;;6.40;5.90;;;16.50;99.90;;;;;;6186905;23;20407;-77
2023/08/11 01:24:45;;;;;;;24.37;20.67;;;16.50;99.90;;;;;;6187593;23;20499;-77
2023/08/11 01:27:36;;;;;;;15.27;13.73;;;16.50;99.90;;;;;;6188124;23;20407;-77
2023/08/11 01:30:34;;;;;;;8.83;8.03;;;16.50;99.90;;;;;;6186725;23;20415;-77
2023/08/11 01:39:18;;;;;;;7.77;6.37;;;16.20;99.90;;;;;;6154015;23;20469;-76
2023/08/11 01:41:57;;;;;;;6.87;6.23;;;16.40;99.90;;;;;;6185007;23;20411;-76
2023/08/11 01:44:37;;;;;;;6.70;6.13;;;16.30;99.90;;;;;;6183130;23;20435;-75
2023/08/11 01:47:10;;;;;;;6.90;6.20;;;16.30;99.90;;;;;;6183720;23;20411;-76
2023/08/11 01:49:46;;;;;;;7.03;6.40;;;16.30;99.90;;;;;;6183975;23;20680;-76
2023/08/11 01:52:39;;;;;;;6.63;6.03;;;16.30;99.90;;;;;;6182625;23;20411;-78
2023/08/11 01:55:13;;;;;;;6.70;6.00;;;16.30;99.90;;;;;;6182831;23;20946;-77
2023/08/11 01:57:43;;;;;;;8.80;6.10;;;16.20;99.90;;;;;;6182718;23;20403;-76
2023/08/11 02:00:17;;;;;;;7.03;6.33;;;16.10;99.90;;;;;;6184697;23;20435;-76
2023/08/11 02:03:13;;;;;;;6.80;6.20;;;16.10;99.90;;;;;;6181882;23;20411;-75
2023/08/11 02:09:29;;;;;;;6.97;6.27;;;16.00;99.90;;;;;;6189671;23;20396;-76
2023/08/11 02:12:53;;;;;;;7.30;6.60;;;16.00;99.90;;;;;;6195482;23;20395;-76
2023/08/11 02:15:37;;;;;;;8.57;6.87;;;16.10;99.90;;;;;;6190514;23;20438;-78
2023/08/11 02:18:40;;;;;;;8.43;7.17;;;15.90;99.90;;;;;;6188801;23;20817;-76
2023/08/11 02:21:20;;;;;;;7.30;6.60;;;15.90;99.90;;;;;;6185276;23;20411;-76
2023/08/11 02:33:40;;;;;;;7.23;6.43;;;15.90;99.90;;;;;;6183165;23;20410;-76
2023/08/11 02:36:36;;;;;;;7.63;6.93;;;15.90;99.90;;;;;;6179942;23;20526;-77
2023/08/11 02:39:29;;;;;;;7.00;6.30;;;15.90;99.90;;;;;;6186421;23;20399;-76
2023/08/11 02:51:33;;;;;;;7.00;6.40;;;15.70;99.90;;;;;;6186850;23;20467;-76
2023/08/11 02:54:06;;;;;;;8.30;7.50;;;15.30;99.90;;;;;;6187618;23;20387;-76
2023/08/11 02:57:11;;;;;;;8.07;7.37;;;15.60;99.90;;;;;;6188059;23;20455;-77
2023/08/11 02:59:56;;;;;;;7.80;7.20;;;15.60;99.90;;;;;;6187201;23;20421;-76
2023/08/11 03:02:33;;;;;;;7.60;6.90;;;15.50;99.90;;;;;;6188150;23;20485;-76
2023/08/11 03:05:12;;;;;;;7.30;6.70;;;15.50;99.90;;;;;;6185586;23;20431;-76
2023/08/11 03:07:51;;;;;;;6.77;6.23;;;15.40;99.90;;;;;;6186649;23;20422;-76
2023/08/11 03:10:21;;;;;;;6.93;6.40;;;15.40;99.90;;;;;;6187064;23;20387;-76
2023/08/11 03:13:00;;;;;;;8.90;7.10;;;15.50;99.90;;;;;;6185919;23;20504;-77
2023/08/11 03:15:34;;;;;;;6.47;5.90;;;15.40;99.90;;;;;;6186468;23;20418;-76
2023/08/11 03:18:15;;;;;;;8.10;7.30;;;15.40;99.90;;;;;;6187645;23;20439;-75
2023/08/11 03:21:03;;;;;;;8.20;6.90;;;15.40;99.90;;;;;;6188749;23;20410;-76
2023/08/11 03:23:45;;;;;;;8.13;7.33;;;15.40;99.90;;;;;;6186646;23;20415;-78
2023/08/11 03:26:34;;;;;;;;;;;;;;;;;;;;;
2023/08/11 03:29:16;;;;;;;7.00;6.40;;;15.30;99.90;;;;;;6187303;23;20387;-76
2023/08/11 03:32:07;;;;;;;6.93;6.23;;;15.30;99.90;;;;;;6188026;23;20400;-77
2023/08/11 03:35:06;;;;;;;6.93;6.33;;;15.30;99.90;;;;;;6187008;23;20399;-77
2023/08/11 03:40:35;;;;;;;7.00;6.30;;;15.20;99.90;;;;;;6144603;23;20419;-76
2023/08/11 03:43:18;;;;;;;7.20;6.60;;;15.20;99.90;;;;;;6187334;23;20494;-77
2023/08/11 03:46:30;;;;;;;7.10;6.40;;;15.20;99.90;;;;;;6187435;23;20992;-76
2023/08/11 03:49:40;;;;;;;10.60;6.53;;;15.20;99.90;;;;;;6188883;23;20454;-76
2023/08/11 03:55:45;;;;;;;7.00;6.30;;;15.10;99.90;;;;;;6165139;23;20430;-77
2023/08/11 03:58:31;;;;;;;6.97;6.40;;;15.10;99.90;;;;;;6189306;23;20406;-76
2023/08/11 04:01:23;;;;;;;7.43;6.73;;;15.10;99.90;;;;;;6188147;23;20403;-76
2023/08/11 04:04:10;;;;;;;8.63;6.97;;;15.00;99.90;;;;;;6187058;23;20442;-77
2023/08/11 04:06:47;;;;;;;7.00;6.37;;;14.70;99.90;;;;;;6188079;23;20514;-77
2023/08/11 04:09:18;;;;;;;7.20;6.50;;;15.00;99.90;;;;;;6187773;23;20439;-77
2023/08/11 04:14:56;;;;;;;7.10;6.47;;;14.90;99.90;;;;;;6185014;23;20781;-78
2023/08/11 04:17:34;;;;;;;7.27;6.67;;;14.90;99.90;;;;;;6187988;23;20368;-77
2023/08/11 04:20:12;;;;;;;7.30;6.70;;;14.90;99.90;;;;;;6187091;23;20514;-76
2023/08/11 04:23:04;;;;;;;7.37;6.67;;;14.90;99.90;;;;;;6187271;23;20438;-78
2023/08/11 04:25:47;;;;;;;7.70;7.00;;;14.90;99.90;;;;;;6171277;23;20447;-76
2023/08/11 04:28:28;;;;;;;6.90;6.30;;;14.80;99.90;;;;;;6187869;23;20391;-79
2023/08/11 04:34:44;;;;;;;7.77;7.17;;;14.80;99.90;;;;;;6175097;23;20396;-76
2023/08/11 04:37:52;;;;;;;;;;;;;;;;;;;;;
2023/08/11 04:40:32;;;;;;;8.60;7.60;;;14.80;99.90;;;;;;6186809;23;20395;-77
2023/08/11 04:46:10;;;;;;;7.77;6.97;;;14.90;99.90;;;;;;6177497;23;20517;-76
2023/08/11 04:51:45;;;;;;;7.33;6.73;;;14.90;99.90;;;;;;6195284;23;20418;-77
2023/08/11 04:54:23;;;;;;;8.47;7.00;;;15.00;99.90;;;;;;6198935;23;20395;-76
2023/08/11 04:57:08;;;;;;;7.30;6.63;;;15.00;99.90;;;;;;6198751;23;20437;-77
2023/08/11 04:59:48;;;;;;;6.80;6.10;;;14.80;99.90;;;;;;6198120;23;20433;-77
2023/08/11 05:02:30;;;;;;;7.20;6.50;;;15.00;99.90;;;;;;6196750;23;20386;-77
2023/08/11 05:05:22;;;;;;;7.40;6.70;;;15.00;99.90;;;;;;6197516;23;20908;-77
2023/08/11 05:08:42;;;;;;;7.67;7.03;;;15.10;99.90;;;;;;6191796;23;20415;-77
2023/08/11 05:11:19;;;;;;;12.80;7.93;;;15.20;99.90;;;;;;6189821;23;20396;-76
2023/08/11 05:13:54;;;;;;;7.90;7.20;;;15.20;99.90;;;;;;6188870;23;20388;-77
2023/08/11 05:16:32;;;;;;;6.63;6.03;;;14.90;99.90;;;;;;6189097;23;20423;-76
2023/08/11 05:19:07;;;;;;;8.20;7.40;;;15.30;99.90;;;;;;6190535;23;20418;-76
2023/08/11 05:21:49;;;;;;;7.43;6.73;;;15.40;99.90;;;;;;6192040;23;20410;-78
2023/08/11 05:24:42;;;;;;;7.00;6.50;;;15.50;99.90;;;;;;6193006;23;20494;-77
2023/08/11 05:27:17;;;;;;;7.77;7.10;;;15.60;99.90;;;;;;6196210;23;20442;-77
2023/08/11 05:29:50;;;;;;;8.00;7.07;;;15.60;99.90;;;;;;6193238;23;20753;-77
2023/08/11 05:32:37;;;;;;;9.07;7.23;;;15.70;99.90;;;;;;6188071;23;20473;-76
2023/08/11 05:35:28;;;;;;;7.20;6.50;;;15.80;99.90;;;;;;6190465;23;20932;-76
2023/08/11 05:38:08;;;;;;;7.00;6.40;;;15.90;99.90;;;;;;6186882;23;20416;-78
2023/08/11 05:44:17;;;;;;;7.70;7.00;;;16.10;99.90;;;;;;6195849;23;20430;-75
2023/08/11 05:47:14;;;;;;;7.20;6.50;;;16.20;99.90;;;;;;6196404;23;20470;-76
2023/08/11 05:50:07;;;;;;;6.70;6.20;;;16.30;99.90;;;;;;6180388;23;20403;-77
2023/08/11 05:52:59;;;;;;;7.80;7.00;;;16.40;99.90;;;;;;6192364;23;20750;-76
2023/08/11 05:56:11;;;;;;;8.20;6.97;;;16.40;99.90;;;;;;6194973;23;20435;-77
2023/08/11 05:58:45;;;;;;;6.93;6.27;;;16.60;99.90;;;;;;6191368;23;20415;-77
2023/08/11 06:01:34;;;;;;;6.47;5.87;;;16.70;99.90;;;;;;6190318;23;20418;-78
2023/08/11 06:04:04;;;;;;;7.73;6.90;;;16.90;99.90;;;;;;6190973;23;20395;-78
2023/08/11 06:06:38;;;;;;;14.70;11.40;;;17.00;99.90;;;;;;6191922;23;20443;-76
2023/08/11 06:09:09;;;;;;;7.70;6.90;;;17.20;99.90;;;;;;6190222;23;20633;-76
2023/08/11 06:11:42;;;;;;;6.43;5.93;;;17.30;99.90;;;;;;6192391;23;20490;-77
2023/08/11 06:14:14;;;;;;;20.23;6.70;;;17.40;99.90;;;;;;6192685;23;20418;-77
2023/08/11 06:16:44;;;;;;;8.00;7.20;;;17.50;99.90;;;;;;6195631;23;20462;-77
2023/08/11 06:19:12;;;;;;;10.23;7.27;;;17.50;99.90;;;;;;6197125;23;20407;-76
2023/08/11 06:21:41;;;;;;;7.63;6.97;;;17.60;99.90;;;;;;6194087;23;20473;-78
2023/08/11 06:24:13;;;;;;;7.53;6.83;;;17.70;99.90;;;;;;6194422;23;20430;-77
2023/08/11 06:26:55;;;;;;;6.57;6.03;;;17.80;99.90;;;;;;6194338;23;20477;-78
2023/08/11 06:29:27;;;;;;;6.90;6.30;;;17.70;99.90;;;;;;6192218;23;20394;-76
2023/08/11 06:31:58;;;;;;;7.80;6.50;;;18.10;99.90;;;;;;6194358;23;20427;-77
2023/08/11 06:34:32;;;;;;;7.33;6.63;;;18.20;99.90;;;;;;6196521;23;20419;-77
2023/08/11 06:37:04;;;;;;;5.83;5.33;;;18.20;99.90;;;;;;6197086;23;20427;-77
2023/08/11 06:39:32;;;;;;;7.40;6.80;;;18.30;99.90;;;;;;6197207;23;20380;-76
2023/08/11 06:42:00;;;;;;;6.80;6.10;;;18.40;99.90;;;;;;6197479;23;20415;-76
2023/08/11 06:44:34;;;;;;;6.33;5.83;;;18.50;99.90;;;;;;6193371;23;20763;-76
2023/08/11 06:47:06;;;;;;;6.87;6.23;;;18.60;99.90;;;;;;6191868;23;20438;-76
2023/08/11 06:49:34;;;;;;;6.53;5.93;;;18.70;99.90;;;;;;6194895;23;20406;-77
2023/08/11 06:52:04;;;;;;;7.30;6.70;;;18.80;99.90;;;;;;6194664;23;20479;-77
2023/08/11 06:54:38;;;;;;;7.80;7.10;;;18.80;99.90;;;;;;6194178;23;20396;-78
2023/08/11 06:57:09;;;;;;;7.80;6.40;;;18.90;99.90;;;;;;6193276;23;20407;-78
2023/08/11 06:59:43;;;;;;;6.97;6.33;;;19.00;99.90;;;;;;6194663;23;20411;-77
2023/08/11 07:02:11;;;;;;;6.43;5.83;;;19.10;99.90;;;;;;6192885;23;20417;-77
2023/08/11 07:04:39;;;;;;;8.63;6.23;;;19.20;99.90;;;;;;6191976;23;20439;-78
2023/08/11 07:07:14;;;;;;;6.80;6.20;;;19.30;99.90;;;;;;6191727;23;20438;-78
2023/08/11 07:09:47;;;;;;;7.77;7.00;;;19.30;99.90;;;;;;6192641;23;20477;-77
2023/08/11 07:12:33;;;;;;;6.70;6.20;;;19.40;99.90;;;;;;6193294;23;20407;-76
2023/08/11 07:15:09;;;;;;;6.30;5.70;;;19.50;99.90;;;;;;6194073;23;20399;-78
2023/08/11 07:17:46;;;;;;;7.13;6.30;;;19.60;99.90;;;;;;6193316;23;20403;-78
2023/08/11 07:20:22;;;;;;;8.30;6.80;;;19.70;99.90;;;;;;6197873;23;20442;-78
2023/08/11 07:22:53;;;;;;;6.77;6.23;;;19.80;99.90;;;;;;6199408;23;20446;-78
2023/08/11 07:25:28;;;;;;;7.30;6.70;;;20.00;99.90;;;;;;6198667;23;20442;-77
2023/08/11 07:28:04;;;;;;;7.50;6.20;;;20.30;99.90;;;;;;6198513;23;20411;-77
2023/08/11 07:30:35;;;;;;;7.03;5.50;;;20.10;99.90;;;;;;6195643;23;20445;-76
2023/08/11 07:33:05;;;;;;;6.73;6.23;;;20.20;99.90;;;;;;6196432;23;20399;-80
2023/08/11 07:35:38;;;;;;;8.00;7.03;;;20.30;99.90;;;;;;6193503;23;20455;-78
2023/08/11 07:38:06;;;;;;;6.67;6.07;;;20.40;99.90;;;;;;6190317;23;20438;-77
2023/08/11 07:40:40;;;;;;;7.57;6.40;;;20.50;99.90;;;;;;6189599;23;20462;-77
2023/08/11 07:43:10;;;;;;;6.90;6.30;;;20.60;99.90;;;;;;6187775;23;20426;-79
2023/08/11 07:45:39;;;;;;;8.40;6.50;;;20.80;99.90;;;;;;6187863;23;20443;-77
2023/08/11 07:48:19;;;;;;;9.80;6.80;;;20.90;99.90;;;;;;6188900;23;20406;-77
2023/08/11 07:50:52;;;;;;;6.87;5.70;;;21.00;99.90;;;;;;6186699;23;20497;-80
2023/08/11 07:53:23;;;;;;;6.63;6.03;;;21.00;99.90;;;;;;6188051;23;20923;-79
2023/08/11 07:55:57;;;;;;;21.87;19.90;;;21.20;99.90;;;;;;6192983;23;20898;-77
2023/08/11 07:58:29;;;;;;;8.40;6.53;;;21.30;99.90;;;;;;6188887;23;20912;-78
2023/08/11 08:01:01;;;;;;;6.03;5.33;;;21.40;99.90;;;;;;6189655;23;20622;-80
2023/08/11 08:03:33;;;;;;;6.93;6.23;;;21.40;99.90;;;;;;6187626;23;20410;-76
2023/08/11 08:06:07;;;;;;;5.97;5.37;;;21.60;99.90;;;;;;6185641;23;20518;-77
2023/08/11 08:08:39;;;;;;;5.23;4.77;;;21.80;99.90;;;;;;6185913;23;20499;-77
2023/08/11 08:11:09;;;;;;;6.70;5.70;;;21.90;99.90;;;;;;6187335;23;20438;-77
2023/08/11 08:13:48;;;;;;;6.70;5.47;;;22.10;99.90;;;;;;6187491;23;20524;-78
2023/08/11 08:16:23;;;;;;;8.30;5.23;;;22.20;99.90;;;;;;6195011;23;20481;-79
2023/08/11 08:18:51;;;;;;;6.23;5.07;;;22.30;99.90;;;;;;6196951;23;20621;-77
2023/08/11 08:21:22;;;;;;;5.40;4.90;;;22.40;99.90;;;;;;6196686;23;20414;-76
2023/08/11 08:24:18;;;;;;;6.73;5.83;;;22.50;99.90;;;;;;6194882;23;20383;-77
2023/08/11 08:26:52;;;;;;;5.70;5.20;;;22.70;99.90;;;;;;6198338;23;20451;-79
2023/08/11 08:29:25;;;;;;;6.07;5.50;;;23.00;99.90;;;;;;6194650;23;20422;-76
2023/08/11 08:31:58;;;;;;;7.23;4.73;;;23.00;99.90;;;;;;6191530;23;20503;-76
2023/08/11 08:34:27;;;;;;;7.90;7.10;;;23.10;99.90;;;;;;6191471;23;20435;-78
2023/08/11 08:36:55;;;;;;;6.87;6.20;;;23.30;99.90;;;;;;6188640;23;20917;-78
2023/08/11 08:39:24;;;;;;;5.57;4.57;;;23.50;99.90;;;;;;6188563;23;20414;-77
2023/08/11 08:41:54;;;;;;;5.77;5.03;;;23.60;99.90;;;;;;6187868;23;20411;-79
2023/08/11 08:44:29;;;;;;;6.47;5.73;;;23.90;99.90;;;;;;6187950;23;20454;-76
2023/08/11 08:47:04;;;;;;;5.73;5.13;;;24.10;99.90;;;;;;6189203;23;20447;-77
2023/08/11 08:49:38;;;;;;;5.70;5.10;;;24.30;99.90;;;;;;6187762;23;20403;-77
2023/08/11 08:52:09;;;;;;;5.17;4.77;;;24.50;99.90;;;;;;6186441;23;20418;-81
2023/08/11 08:54:37;;;;;;;5.30;4.77;;;24.30;99.90;;;;;;6186773;23;20702;-78
2023/08/11 08:57:09;;;;;;;5.00;4.60;;;24.70;99.90;;;;;;6186582;23;20432;-80
2023/08/11 08:59:39;;;;;;;5.80;5.20;;;25.00;99.90;;;;;;6186850;23;20407;-77
2023/08/11 09:02:17;;;;;;;6.23;5.57;;;25.20;99.90;;;;;;6187329;23;20430;-78
2023/08/11 09:04:49;;;;;;;5.50;5.00;;;25.40;99.90;;;;;;6189292;23;20430;-79
2023/08/11 09:07:22;;;;;;;6.20;5.00;;;25.60;99.90;;;;;;6189283;23;20519;-77
2023/08/11 09:09:57;;;;;;;5.17;4.77;;;25.60;99.90;;;;;;6189000;23;20905;-80
2023/08/11 09:12:31;;;;;;;5.00;4.60;;;25.90;99.90;;;;;;6189050;23;20447;-76
2023/08/11 09:15:02;;;;;;;5.40;4.53;;;25.90;99.90;;;;;;6189831;23;20751;-79
2023/08/11 09:17:34;;;;;;;4.90;4.50;;;26.00;99.90;;;;;;6195727;23;20434;-78
2023/08/11 09:20:03;;;;;;;4.30;4.00;;;26.40;99.90;;;;;;6189359;23;20426;-79
2023/08/11 09:22:36;;;;;;;4.70;4.30;;;26.60;99.90;;;;;;6187803;23;20442;-80
2023/08/11 09:25:05;;;;;;;5.07;4.57;;;26.80;99.90;;;;;;6187033;23;20493;-79
2023/08/11 09:27:39;;;;;;;5.27;4.77;;;27.10;99.90;;;;;;6187335;23;20445;-79
2023/08/11 09:30:23;;;;;;;5.63;5.07;;;27.20;99.90;;;;;;6187016;23;20429;-79
2023/08/11 09:32:52;;;;;;;4.97;4.47;;;27.50;99.90;;;;;;6186480;23;20505;-76
2023/08/11 09:35:25;;;;;;;4.20;3.90;;;27.60;99.90;;;;;;6185480;23;20506;-77
2023/08/11 09:37:53;;;;;;;5.13;4.10;;;;;;;;;;6185673;23;20531;-76
2023/08/11 09:40:25;;;;;;;4.37;3.97;;;27.90;99.90;;;;;;6185870;23;20780;-77
2023/08/11 09:42:56;;;;;;;4.43;4.03;;;28.10;99.90;;;;;;6186594;23;20490;-78
2023/08/11 09:45:30;;;;;;;4.87;4.47;;;28.40;99.90;;;;;;6188312;23;20419;-76
2023/08/11 09:47:59;;;;;;;4.30;4.00;;;28.40;99.90;;;;;;6194515;23;21079;-78
2023/08/11 09:50:29;;;;;;;4.30;4.00;;;28.60;99.90;;;;;;6190508;23;20502;-79
2023/08/11 09:53:00;;;;;;;4.97;4.57;;;28.80;99.90;;;;;;6190556;23;20415;-78
2023/08/11 09:55:33;;;;;;;4.80;4.40;;;28.90;99.90;;;;;;6195438;23;20450;-76
2023/08/11 09:58:13;;;;;;;4.77;4.00;;;29.10;99.90;;;;;;6200841;23;20445;-79
2023/08/11 10:00:45;;;;;;;5.00;3.90;;;29.10;99.90;;;;;;6200305;23;20477;-79
2023/08/11 10:03:26;;;;;;;4.00;3.70;;;29.10;99.90;;;;;;6197044;23;20607;-78
2023/08/11 10:06:00;;;;;;;4.00;3.80;;;29.70;99.90;;;;;;6194865;23;20486;-77
2023/08/11 10:08:36;;;;;;;4.10;3.80;;;29.70;99.90;;;;;;6195714;23;20410;-78
2023/08/11 10:11:09;;;;;;;4.23;3.80;;;29.80;99.90;;;;;;6195433;23;20399;-77
2023/08/11 10:13:41;;;;;;;4.63;4.23;;;30.00;99.90;;;;;;6194060;23;20372;-77
2023/08/11 10:16:12;;;;;;;4.27;3.93;;;;;;;;;;6192191;23;20442;-77
2023/08/11 10:18:45;;;;;;;4.17;3.87;;;30.50;99.90;;;;;;6190247;23;20484;-77
2023/08/11 10:21:15;;;;;;;4.13;3.83;;;30.50;99.90;;;;;;6187561;23;20437;-79
2023/08/11 10:23:45;;;;;;;4.23;3.93;;;30.50;99.90;;;;;;6186963;23;20438;-79
2023/08/11 10:26:34;;;;;;;4.57;4.17;;;30.70;99.90;;;;;;6188188;23;20514;-76
2023/08/11 10:29:10;;;;;;;4.27;3.90;;;30.20;99.90;;;;;;6187643;23;20418;-79
2023/08/11 10:31:44;;;;;;;4.23;3.93;;;30.40;99.90;;;;;;6187213;23;20419;-78
2023/08/11 10:34:24;;;;;;;7.07;4.10;;;30.80;99.90;;;;;;6187869;23;20414;-79
2023/08/11 10:36:54;;;;;;;4.17;3.87;;;30.20;99.90;;;;;;6187408;23;20773;-77
2023/08/11 10:39:31;;;;;;;5.50;5.00;;;30.50;99.90;;;;;;6188774;23;20423;-76
2023/08/11 10:42:02;;;;;;;4.03;3.70;;;30.70;99.90;;;;;;6188183;23;20421;-79
2023/08/11 10:44:40;;;;;;;4.00;3.63;;;31.30;99.90;;;;;;6187251;23;20413;-79
2023/08/11 10:50:00;;;;;;;4.70;4.30;;;30.90;99.90;;;;;;6186533;23;20410;-79
2023/08/11 10:52:34;;;;;;;4.87;3.90;;;31.10;99.90;;;;;;6187527;23;20397;-78
2023/08/11 10:55:04;;;;;;;3.83;3.63;;;31.00;99.90;;;;;;6188546;23;20450;-76
2023/08/11 10:57:38;;;;;;;4.63;4.30;;;30.90;99.90;;;;;;6188299;23;20892;-78
2023/08/11 11:00:09;;;;;;;4.33;3.93;;;30.80;99.90;;;;;;6187476;23;20402;-77
2023/08/11 11:02:45;;;;;;;3.97;3.67;;;30.90;99.90;;;;;;6188645;23;20415;-78
2023/08/11 11:05:21;;;;;;;7.20;4.10;;;31.00;99.90;;;;;;6190561;23;20423;-78
2023/08/11 11:07:53;;;;;;;4.57;4.20;;;30.90;99.90;;;;;;6190101;23;20438;-76
2023/08/11 11:10:23;;;;;;;4.60;4.13;;;31.60;99.90;;;;;;6189457;23;20715;-78
2023/08/11 11:12:51;;;;;;;4.40;4.00;;;32.00;99.90;;;;;;6193243;23;20372;-78
2023/08/11 11:15:19;;;;;;;4.50;4.23;;;31.10;99.90;;;;;;6191120;23;20526;-77
2023/08/11 11:17:51;;;;;;;4.20;3.90;;;31.70;99.90;;;;;;6187672;23;20407;-77
2023/08/11 11:20:21;;;;;;;3.90;3.70;;;32.20;99.90;;;;;;6189039;23;20434;-79
2023/08/11 11:22:49;;;;;;;4.97;4.03;;;32.60;99.90;;;;;;6189974;23;20423;-77
2023/08/11 11:25:22;;;;;;;4.20;3.77;;;32.80;99.20;;;;;;6197234;23;20431;-77
2023/08/11 11:27:50;;;;;;;4.10;3.80;;;32.80;98.90;;;;;;6192083;23;20435;-79
2023/08/11 11:30:30;;;;;;;3.70;3.40;;;32.80;98.80;;;;;;6194478;23;20446;-80
2023/08/11 11:33:30;;;;;;;5.07;3.97;;;33.00;98.40;;;;;;6192525;23;20446;-81
2023/08/11 11:36:12;;;;;;;4.27;3.90;;;32.70;98.60;;;;;;6190331;23;20525;-78
2023/08/11 11:39:00;;;;;;;4.23;3.90;;;32.90;98.20;;;;;;6191270;23;20485;-78
2023/08/11 11:41:28;;;;;;;4.10;3.87;;;32.70;97.40;;;;;;6193073;23;20450;-80
2023/08/11 11:43:56;;;;;;;4.53;4.13;;;32.40;98.10;;;;;;6193351;23;20897;-79
2023/08/11 11:46:29;;;;;;;4.40;4.00;;;32.30;98.30;;;;;;6192628;23;20451;-80
2023/08/11 11:48:58;;;;;;;4.20;3.80;;;32.60;97.70;;;;;;6192297;23;20419;-81
2023/08/11 11:51:30;;;;;;;4.10;3.80;;;32.60;96.90;;;;;;6192111;23;20407;-79
2023/08/11 11:54:00;;;;;;;4.30;4.00;;;32.70;97.20;;;;;;6192851;23;20439;-80
2023/08/11 11:56:30;;;;;;;4.30;4.00;;;33.00;96.20;;;;;;6192779;23;20431;-79
2023/08/11 11:58:58;;;;;;;4.33;3.63;;;33.30;95.90;;;;;;6192305;23;20372;-82
2023/08/11 12:01:28;;;;;;;4.70;3.43;;;33.60;95.30;;;;;;6191624;23;20412;-79
2023/08/11 12:03:59;;;;;;;4.60;4.20;;;33.20;95.30;;;;;;6190383;23;20431;-78
2023/08/11 12:06:29;;;;;;;4.13;3.83;;;33.60;95.10;;;;;;6190337;23;20441;-79
2023/08/11 12:09:04;;;;;;;4.20;3.90;;;34.00;94.90;;;;;;6194407;23;20410;-79
2023/08/11 12:11:33;;;;;;;4.07;3.70;;;33.80;94.10;;;;;;6189392;23;20402;-78
2023/08/11 12:14:05;;;;;;;3.57;3.37;;;33.30;94.80;;;;;;6188937;23;20426;-77
2023/08/11 12:16:35;;;;;;;4.07;3.77;;;33.90;94.10;;;;;;6188893;23;20427;-80
2023/08/11 12:19:04;;;;;;;4.20;3.90;;;34.20;93.50;;;;;;6189721;23;20388;-80
2023/08/11 12:21:34;;;;;;;3.80;3.60;;;34.40;92.80;;;;;;6189209;23;20514;-79
2023/08/11 12:24:15;;;;;;;;;;;;;;;;;;;;;
2023/08/11 12:26:46;;;;;;;3.67;3.47;;;33.70;92.50;;;;;;6190491;23;20435;-78
2023/08/11 12:29:17;;;;;;;4.00;3.70;;;33.60;92.60;;;;;;6191698;23;20410;-77
2023/08/11 12:31:51;;;;;;;4.20;3.80;;;34.00;92.60;;;;;;6191786;23;20628;-78
2023/08/11 12:34:21;;;;;;;3.77;3.53;;;33.60;91.80;;;;;;6190793;23;20395;-78
2023/08/11 12:36:52;;;;;;;3.80;3.60;;;32.80;92.60;;;;;;6192325;23;20419;-79
2023/08/11 12:39:22;;;;;;;3.70;3.40;;;33.20;93.00;;;;;;6193627;23;20391;-80
2023/08/11 12:42:02;;;;;;;4.47;3.60;;;34.20;92.40;;;;;;6190815;23;20415;-78
2023/08/11 12:44:29;;;;;;;3.83;3.53;;;34.90;91.50;;;;;;6191033;23;20410;-79
2023/08/11 12:47:01;;;;;;;3.80;3.50;;;35.00;90.50;;;;;;6190992;23;20459;-79
2023/08/11 12:49:35;;;;;;;3.53;3.33;;;35.30;89.80;;;;;;6190968;23;20470;-81
2023/08/11 12:52:14;;;;;;;3.40;3.20;;;34.70;89.70;;;;;;6192570;23;20476;-79
2023/08/11 12:54:52;;;;;;;3.90;3.60;;;34.30;90.70;;;;;;6190147;23;20501;-78
2023/08/11 12:57:26;;;;;;;3.97;3.67;;;34.40;90.20;;;;;;6190412;23;20438;-80
2023/08/11 12:59:57;;;;;;;4.33;3.80;;;33.40;90.70;;;;;;6191149;23;20411;-78
2023/08/11 13:02:33;;;;;;;3.90;3.40;;;33.80;90.60;;;;;;6190879;23;20415;-80
2023/08/11 13:05:14;;;;;;;3.97;3.57;;;34.60;89.60;;;;;;6190361;23;20415;-78
2023/08/11 13:07:46;;;;;;;4.00;3.70;;;35.20;88.30;;;;;;6190274;23;20447;-80
2023/08/11 13:10:19;;;;;;;3.50;3.30;;;35.70;87.80;;;;;;6192427;23;20724;-77
2023/08/11 13:12:52;;;;;;;5.37;3.20;;;35.70;87.00;;;;;;6191354;23;20415;-79
2023/08/11 13:15:21;;;;;;;3.77;3.47;;;36.20;85.80;;;;;;6193448;23;20427;-79
2023/08/11 13:18:02;;;;;;;3.93;3.63;;;36.10;84.20;;;;;;6186476;23;20414;-79
2023/08/11 13:20:38;;;;;;;3.40;3.00;;;36.20;84.20;;;;;;6190024;23;20387;-79
2023/08/11 13:23:17;;;;;;;3.60;3.30;;;36.10;84.20;;;;;;6194760;23;20493;-76
2023/08/11 13:25:49;;;;;;;3.90;3.60;;;35.90;85.60;;;;;;6186574;23;20441;-79
2023/08/11 13:28:17;;;;;;;3.80;3.00;;;34.60;85.30;;;;;;6187200;23;20447;-79
2023/08/11 13:30:47;;;;;;;3.97;3.67;;;34.20;86.30;;;;;;6185173;23;20419;-80
2023/08/11 13:33:18;;;;;;;3.83;3.50;;;34.40;86.00;;;;;;6184853;23;20415;-80
2023/08/11 13:35:54;;;;;;;3.87;3.60;;;33.70;86.80;;;;;;6186091;23;20502;-78
2023/08/11 13:38:34;;;;;;;3.70;3.50;;;33.70;88.70;;;;;;6185768;23;20454;-79
2023/08/11 13:41:02;;;;;;;3.47;3.27;;;34.10;86.50;;;;;;6187984;23;20383;-79
2023/08/11 13:43:33;;;;;;;3.30;3.10;;;34.40;86.60;;;;;;6184798;23;20413;-78
2023/08/11 13:46:01;;;;;;;3.80;3.30;;;34.80;85.00;;;;;;6189192;23;20458;-80
2023/08/11 13:48:31;;;;;;;3.43;3.17;;;34.60;85.70;;;;;;6189841;23;20435;-79
2023/08/11 13:50:59;;;;;;;3.80;3.50;;;35.20;83.90;;;;;;6186295;23;20467;-78
2023/08/11 13:53:30;;;;;;;3.60;3.40;;;35.50;82.90;;;;;;6187215;23;20441;-77
2023/08/11 13:56:12;;;;;;;3.27;3.07;;;35.90;82.20;;;;;;6185947;23;20431;-76
2023/08/11 13:58:53;;;;;;;4.23;3.90;;;36.30;81.40;;;;;;6188264;23;20422;-77
2023/08/11 14:01:28;;;;;;;3.40;3.20;;;35.80;81.70;;;;;;6186424;23;20453;-78
2023/08/11 14:04:06;;;;;;;3.50;3.30;;;35.70;80.60;;;;;;6193931;23;20410;-79
2023/08/11 14:06:40;;;;;;;3.50;3.30;;;35.30;81.30;;;;;;6197848;23;20438;-79
2023/08/11 14:09:17;;;;;;;3.13;2.93;;;35.70;80.70;;;;;;6199353;23;20466;-77
2023/08/11 14:11:52;;;;;;;3.17;3.03;;;35.80;80.50;;;;;;6199255;23;20431;-79
2023/08/11 14:14:27;;;;;;;3.20;3.00;;;35.80;80.00;;;;;;6198356;23;20414;-76
2023/08/11 14:16:55;;;;;;;3.37;3.17;;;35.80;78.90;;;;;;6197255;23;20453;-79
2023/08/11 14:19:25;;;;;;;3.37;3.17;;;36.10;79.10;;;;;;6198633;23;20438;-77
2023/08/11 14:21:55;;;;;;;4.00;3.73;;;36.50;77.80;;;;;;6197021;23;20880;-76
2023/08/11 14:24:26;;;;;;;3.03;2.83;;;36.80;77.10;;;;;;6195090;23;20889;-78
2023/08/11 14:27:03;;;;;;;5.03;3.23;;;36.80;77.20;;;;;;6194352;23;20489;-75
2023/08/11 14:29:35;;;;;;;5.60;3.80;;;36.30;76.50;;;;;;6200944;23;20422;-78
2023/08/11 14:32:08;;;;;;;3.30;3.10;;;35.10;78.30;;;;;;6202672;23;20399;-77
2023/08/11 14:34:39;;;;;;;3.03;2.83;;;34.80;80.10;;;;;;6197923;23;20454;-78
2023/08/11 14:37:08;;;;;;;4.00;3.60;;;35.60;79.60;;;;;;6199388;23;20481;-78
2023/08/11 14:39:39;;;;;;;4.00;3.70;;;36.20;78.80;;;;;;6197839;23;20477;-78
2023/08/11 14:42:08;;;;;;;3.60;3.30;;;36.30;77.50;;;;;;6199312;23;20409;-79
2023/08/11 14:44:37;;;;;;;3.47;3.17;;;35.10;79.40;;;;;;6200728;23;20417;-78